Time;durP1;ratioP1;P1;durP2;ratioP2;P2;SDS_P1;SDS_P2;PMS_P1;PMS_P2;Temp;Humidity;BMP_temperature;BMP_pressure;BME280_temperature;BME280_humidity;BME280_pressure;Samples;Min_cycle;Max_cycle;Signal;HPM_P1;HPM_P2
2023/04/17 00:01:35;;;;;;;1.90;1.20;;;;;;;;;;5083651;28;20038;-84
2023/04/17 00:04:01;;;;;;;0.40;0.40;;;;;;;;;;5084844;28;20016;-86
2023/04/17 00:06:27;;;;;;;1.88;0.93;;;;;;;;;;5064487;28;20028;-83
2023/04/17 00:08:53;;;;;;;1.48;1.08;;;;;;;;;;5082546;28;20032;-82
2023/04/17 00:11:18;;;;;;;2.17;1.33;;;;;;;;;;5058426;28;20491;-85
2023/04/17 00:13:44;;;;;;;4.28;1.30;;;;;;;;;;5065404;28;20048;-83
2023/04/17 00:16:11;;;;;;;1.65;1.05;;;;;;;;;;5080133;28;20028;-85
2023/04/17 00:18:37;;;;;;;1.98;1.08;;;;;;;;;;5085026;28;20030;-83
2023/04/17 00:21:02;;;;;;;4.03;1.23;;;;;;;;;;5066646;28;20477;-83
2023/04/17 00:23:28;;;;;;;2.00;1.45;;;;;;;;;;5065596;28;20020;-82
2023/04/17 00:25:53;;;;;;;1.50;0.93;;;;;;;;;;5085980;28;20039;-85
2023/04/17 00:28:19;;;;;;;1.77;1.33;;;;;;;;;;5083611;28;20024;-85
2023/04/17 00:30:44;;;;;;;1.95;0.98;;;;;;;;;;5080007;28;20096;-85
2023/04/17 00:33:09;;;;;;;3.53;1.33;;;;;;;;;;5085334;28;20032;-84
2023/04/17 00:35:35;;;;;;;2.13;1.00;;;;;;;;;;5087394;28;20024;-85
2023/04/17 00:38:00;;;;;;;0.98;0.88;;;;;;;;;;5082781;28;20024;-85
2023/04/17 00:40:26;;;;;;;1.70;1.23;;;;;;;;;;5079529;28;20027;-85
2023/04/17 00:42:54;;;;;;;1.65;1.27;;;;;;;;;;5076611;28;20063;-85
2023/04/17 00:45:20;;;;;;;4.77;1.00;;;;;;;;;;5058323;28;20017;-84
2023/04/17 00:47:48;;;;;;;1.60;1.25;;;;;;;;;;5059568;28;20078;-84
2023/04/17 00:50:14;;;;;;;3.47;1.17;;;;;;;;;;5080940;28;20028;-85
2023/04/17 00:52:40;;;;;;;8.20;2.22;;;;;;;;;;5067283;28;20038;-85
2023/04/17 00:55:06;;;;;;;2.83;1.58;;;;;;;;;;5061696;28;20033;-84
2023/04/17 00:57:33;;;;;;;2.85;1.60;;;;;;;;;;5084551;28;20468;-83
2023/04/17 00:59:58;;;;;;;1.50;1.20;;;;;;;;;;5078127;28;20384;-83
2023/04/17 01:02:24;;;;;;;2.08;1.25;;;;;;;;;;5075873;28;20035;-82
2023/04/17 01:04:50;;;;;;;2.05;1.55;;;;;;;;;;5066834;28;20012;-87
2023/04/17 01:07:16;;;;;;;4.88;1.33;;;;;;;;;;5082709;28;20495;-85
2023/04/17 01:09:41;;;;;;;3.50;1.20;;;;;;;;;;5086952;28;20052;-83
2023/04/17 01:12:23;;;;;;;10.63;1.88;;;;;;;;;;5062514;28;20467;-83
2023/04/17 01:14:50;;;;;;;4.50;2.03;;;;;;;;;;5083720;28;20024;-86
2023/04/17 01:17:18;;;;;;;1.33;1.10;;;;;;;;;;5080528;28;20517;-87
2023/04/17 01:19:44;;;;;;;1.67;1.35;;;;;;;;;;5063899;28;20541;-85
2023/04/17 01:22:10;;;;;;;6.55;1.60;;;;;;;;;;5084706;28;20134;-85
2023/04/17 01:24:36;;;;;;;2.35;1.48;;;;;;;;;;5086665;28;20028;-83
2023/04/17 01:27:02;;;;;;;2.13;1.45;;;;;;;;;;5080265;28;20026;-84
2023/04/17 01:29:27;;;;;;;3.45;1.95;;;;;;;;;;5076096;28;20491;-82
2023/04/17 01:31:53;;;;;;;2.10;1.67;;;;;;;;;;5062298;28;20028;-82
2023/04/17 01:34:18;;;;;;;6.63;1.67;;;;;;;;;;5062399;28;20024;-83
2023/04/17 01:36:44;;;;;;;3.15;1.83;;;;;;;;;;5077935;28;20028;-84
2023/04/17 01:39:09;;;;;;;2.53;1.60;;;;;;;;;;5082564;28;20036;-84
2023/04/17 01:41:35;;;;;;;3.20;1.75;;;;;;;;;;5077749;28;20365;-84
2023/04/17 01:44:01;;;;;;;2.95;1.70;;;;;;;;;;5078259;28;20703;-83
2023/04/17 01:46:26;;;;;;;3.85;2.15;;;;;;;;;;5082338;28;20062;-85
2023/04/17 01:48:52;;;;;;;2.42;1.83;;;;;;;;;;5079247;28;20036;-83
2023/04/17 01:51:17;;;;;;;1.83;1.33;;;;;;;;;;5059868;28;20028;-82
2023/04/17 01:53:43;;;;;;;3.03;1.52;;;;;;;;;;5060641;28;20111;-82
2023/04/17 01:56:08;;;;;;;2.45;1.92;;;;;;;;;;5078831;28;20052;-84
2023/04/17 01:58:34;;;;;;;2.70;1.33;;;;;;;;;;5076467;28;20028;-84
2023/04/17 02:00:59;;;;;;;2.75;2.08;;;;;;;;;;5080835;28;20028;-84
2023/04/17 02:03:25;;;;;;;4.85;2.78;;;;;;;;;;5059489;28;20024;-84
2023/04/17 02:05:52;;;;;;;3.35;2.08;;;;;;;;;;5059440;28;20036;-85
2023/04/17 02:08:17;;;;;;;3.45;2.40;;;;;;;;;;5078687;28;20031;-85
2023/04/17 02:10:43;;;;;;;2.65;1.83;;;;;;;;;;5064963;28;20036;-85
2023/04/17 02:13:09;;;;;;;4.88;1.85;;;;;;;;;;5077992;28;20055;-84
2023/04/17 02:15:35;;;;;;;3.75;2.28;;;;;;;;;;5080869;28;20063;-84
2023/04/17 02:18:02;;;;;;;2.17;1.42;;;;;;;;;;5059955;28;20102;-84
2023/04/17 02:20:28;;;;;;;6.55;2.17;;;;;;;;;;5079990;28;20025;-85
2023/04/17 02:22:54;;;;;;;2.65;1.88;;;;;;;;;;5063508;28;20035;-83
2023/04/17 02:25:19;;;;;;;3.10;1.88;;;;;;;;;;5078507;28;20090;-84
2023/04/17 02:27:45;;;;;;;4.07;1.70;;;;;;;;;;5083736;28;20028;-83
2023/04/17 02:30:11;;;;;;;3.65;1.85;;;;;;;;;;5077679;28;20460;-84
2023/04/17 02:32:36;;;;;;;3.05;1.85;;;;;;;;;;5083023;28;20008;-85
2023/04/17 02:35:02;;;;;;;6.30;2.17;;;;;;;;;;5061708;28;20025;-83
2023/04/17 02:37:27;;;;;;;3.30;2.03;;;;;;;;;;5079766;28;20035;-84
2023/04/17 02:39:54;;;;;;;4.68;1.85;;;;;;;;;;5080793;28;20381;-83
2023/04/17 02:42:19;;;;;;;3.05;2.13;;;;;;;;;;5078513;28;20036;-83
2023/04/17 02:44:48;;;;;;;2.97;2.17;;;;;;;;;;5063717;28;20032;-85
2023/04/17 02:47:13;;;;;;;1.67;1.40;;;;;;;;;;5082190;28;20028;-83
2023/04/17 02:49:40;;;;;;;2.33;1.83;;;;;;;;;;5059151;28;20498;-84
2023/04/17 02:52:06;;;;;;;2.20;1.50;;;;;;;;;;5082385;28;20025;-83
2023/04/17 02:54:31;;;;;;;6.50;1.90;;;;;;;;;;5066929;28;20056;-84
2023/04/17 02:56:57;;;;;;;3.53;2.00;;;;;;;;;;5057855;28;20496;-83
2023/04/17 02:59:25;;;;;;;5.32;1.90;;;;;;;;;;5080184;28;20594;-84
2023/04/17 03:01:50;;;;;;;9.10;2.22;;;;;;;;;;5077054;28;20044;-86
2023/04/17 03:04:15;;;;;;;3.55;2.22;;;;;;;;;;5075427;28;20085;-84
2023/04/17 03:06:41;;;;;;;3.00;2.08;;;;;;;;;;5083742;28;20028;-85
2023/04/17 03:09:07;;;;;;;7.25;2.78;;;;;;;;;;5058789;28;20034;-84
2023/04/17 03:11:33;;;;;;;6.03;1.98;;;;;;;;;;5082502;28;20040;-84
2023/04/17 03:13:58;;;;;;;2.88;1.55;;;;;;;;;;5083148;28;20396;-84
2023/04/17 03:16:24;;;;;;;3.55;2.35;;;;;;;;;;5080172;28;20037;-85
2023/04/17 03:18:49;;;;;;;1.75;1.40;;;;;;;;;;5082079;28;20094;-84
2023/04/17 03:21:15;;;;;;;3.08;1.95;;;;;;;;;;5077954;28;20032;-85
2023/04/17 03:23:40;;;;;;;3.70;2.42;;;;;;;;;;5084457;28;20039;-85
2023/04/17 03:26:06;;;;;;;2.60;1.90;;;;;;;;;;5079846;28;20487;-84
2023/04/17 03:28:31;;;;;;;3.05;2.05;;;;;;;;;;5064985;28;20024;-83
2023/04/17 03:30:58;;;;;;;6.07;2.47;;;;;;;;;;5066059;28;20516;-83
2023/04/17 03:33:24;;;;;;;6.18;1.92;;;;;;;;;;5066984;28;20020;-83
2023/04/17 03:35:50;;;;;;;9.75;2.33;;;;;;;;;;5063231;28;20526;-87
2023/04/17 03:38:16;;;;;;;1.85;1.27;;;;;;;;;;5078631;28;20032;-82
2023/04/17 03:40:42;;;;;;;10.32;2.25;;;;;;;;;;5084782;28;20493;-86
2023/04/17 03:43:08;;;;;;;3.85;1.40;;;;;;;;;;5062424;28;20028;-85
2023/04/17 03:45:33;;;;;;;2.53;2.03;;;;;;;;;;5060320;28;20452;-85
2023/04/17 03:47:59;;;;;;;2.33;1.52;;;;;;;;;;5084458;28;20024;-85
2023/04/17 03:50:24;;;;;;;3.03;1.50;;;;;;;;;;5067771;28;20020;-83
2023/04/17 03:52:50;;;;;;;3.35;1.85;;;;;;;;;;5087270;28;20046;-85
2023/04/17 03:55:16;;;;;;;2.80;1.70;;;;;;;;;;5084718;28;20048;-81
2023/04/17 03:57:41;;;;;;;3.90;1.80;;;;;;;;;;5077221;28;20024;-83
2023/04/17 04:00:11;;;;;;;3.17;2.20;;;;;;;;;;5079678;28;20464;-80
2023/04/17 04:02:36;;;;;;;2.88;1.35;;;;;;;;;;5066614;28;20029;-79
2023/04/17 04:05:02;;;;;;;3.88;1.58;;;;;;;;;;5062670;28;20085;-80
2023/04/17 04:07:28;;;;;;;7.65;2.22;;;;;;;;;;5079941;28;20052;-83
2023/04/17 04:09:54;;;;;;;3.03;1.95;;;;;;;;;;5079883;28;20444;-82
2023/04/17 04:12:21;;;;;;;3.65;1.85;;;;;;;;;;5087932;28;20446;-81
2023/04/17 04:14:47;;;;;;;2.97;2.00;;;;;;;;;;5078459;28;20024;-82
2023/04/17 04:17:13;;;;;;;4.47;1.70;;;;;;;;;;5061644;28;20109;-81
2023/04/17 04:19:38;;;;;;;2.38;1.80;;;;;;;;;;5078623;28;20027;-81
2023/04/17 04:22:04;;;;;;;5.50;1.67;;;;;;;;;;5080378;28;20032;-81
2023/04/17 04:24:29;;;;;;;1.83;1.48;;;;;;;;;;5075572;28;20032;-82
2023/04/17 04:27:01;;;;;;;2.63;1.55;;;;;;;;;;5081212;28;20077;-80
2023/04/17 04:29:26;;;;;;;4.60;2.15;;;;;;;;;;5085482;28;20384;-80
2023/04/17 04:31:52;;;;;;;4.15;2.20;;;;;;;;;;5082492;28;20028;-81
2023/04/17 04:34:17;;;;;;;2.10;1.35;;;;;;;;;;5083948;28;20416;-81
2023/04/17 04:36:49;;;;;;;4.63;1.70;;;;;;;;;;5081020;28;20024;-81
2023/04/17 04:39:19;;;;;;;2.63;1.38;;;;;;;;;;5076022;28;20383;-81
2023/04/17 04:41:52;;;;;;;2.00;1.77;;;;;;;;;;5060757;28;20028;-80
2023/04/17 04:44:18;;;;;;;4.00;1.73;;;;;;;;;;5081319;28;20484;-81
2023/04/17 04:46:44;;;;;;;3.22;2.17;;;;;;;;;;5083661;28;20028;-81
2023/04/17 04:49:09;;;;;;;2.30;1.70;;;;;;;;;;5078576;28;20036;-81
2023/04/17 04:51:35;;;;;;;1.45;1.33;;;;;;;;;;5083123;28;20020;-81
2023/04/17 04:54:01;;;;;;;3.10;2.05;;;;;;;;;;5061797;28;20382;-81
2023/04/17 04:56:27;;;;;;;3.22;2.20;;;;;;;;;;5076460;28;20430;-82
2023/04/17 04:58:54;;;;;;;1.92;1.45;;;;;;;;;;5059751;28;20028;-80
2023/04/17 05:01:19;;;;;;;2.10;1.67;;;;;;;;;;5080927;28;20031;-80
2023/04/17 05:03:45;;;;;;;2.28;1.58;;;;;;;;;;5060818;28;20468;-81
2023/04/17 05:06:12;;;;;;;2.92;2.13;;;;;;;;;;5068112;28;20028;-81
2023/04/17 05:08:38;;;;;;;5.57;2.40;;;;;;;;;;5062295;28;20024;-83
2023/04/17 05:11:04;;;;;;;2.55;2.10;;;;;;;;;;5072027;28;20116;-82
2023/04/17 05:13:29;;;;;;;3.80;2.20;;;;;;;;;;5081869;28;20079;-81
2023/04/17 05:15:55;;;;;;;4.75;2.17;;;;;;;;;;5071709;28;20510;-82
2023/04/17 05:18:21;;;;;;;2.13;1.60;;;;;;;;;;5061585;28;20020;-81
2023/04/17 05:20:46;;;;;;;5.32;2.40;;;;;;;;;;5079664;28;20365;-81
2023/04/17 05:23:12;;;;;;;2.70;1.88;;;;;;;;;;5081943;28;20032;-81
2023/04/17 05:25:38;;;;;;;7.28;2.40;;;;;;;;;;5076534;28;20021;-81
2023/04/17 05:28:04;;;;;;;3.05;1.98;;;;;;;;;;5056470;28;20024;-81
2023/04/17 05:30:30;;;;;;;3.50;1.77;;;;;;;;;;5073795;28;20093;-82
2023/04/17 05:32:55;;;;;;;5.80;1.90;;;;;;;;;;5053212;28;20369;-80
2023/04/17 05:35:20;;;;;;;7.15;2.65;;;;;;;;;;5053169;28;20028;-82
2023/04/17 05:37:46;;;;;;;5.93;1.73;;;;;;;;;;5080594;28;20089;-82
2023/04/17 05:40:12;;;;;;;2.50;1.70;;;;;;;;;;5062211;28;20035;-80
2023/04/17 05:42:37;;;;;;;3.92;2.08;;;;;;;;;;5074518;28;20526;-82
2023/04/17 05:45:03;;;;;;;2.20;1.63;;;;;;;;;;5054540;28;20046;-80
2023/04/17 05:47:29;;;;;;;3.53;2.08;;;;;;;;;;5071428;28;20495;-80
2023/04/17 05:49:57;;;;;;;2.85;1.80;;;;;;;;;;5069429;28;20028;-80
2023/04/17 05:52:23;;;;;;;2.72;1.77;;;;;;;;;;5072472;28;20024;-80
2023/04/17 05:54:48;;;;;;;2.38;1.67;;;;;;;;;;5064799;28;20057;-80
2023/04/17 05:57:14;;;;;;;5.88;1.92;;;;;;;;;;5076562;28;20059;-79
2023/04/17 05:59:39;;;;;;;10.73;2.22;;;;;;;;;;5069742;28;20069;-79
2023/04/17 06:02:06;;;;;;;3.65;2.35;;;;;;;;;;5065141;28;20545;-79
2023/04/17 06:04:32;;;;;;;2.55;2.13;;;;;;;;;;5066529;28;20029;-79
2023/04/17 06:06:57;;;;;;;6.75;3.08;;;;;;;;;;5063594;28;20028;-80
2023/04/17 06:09:23;;;;;;;3.13;2.05;;;;;;;;;;5063825;28;20110;-79
2023/04/17 06:11:48;;;;;;;3.55;2.17;;;;;;;;;;5070127;28;20028;-79
2023/04/17 06:14:13;;;;;;;4.40;1.70;;;;;;;;;;5067053;28;20044;-80
2023/04/17 06:16:39;;;;;;;3.70;2.20;;;;;;;;;;5083899;28;20024;-80
2023/04/17 06:19:04;;;;;;;6.07;2.05;;;;;;;;;;5068767;28;20025;-80
2023/04/17 06:21:31;;;;;;;3.13;1.60;;;;;;;;;;5050639;28;20354;-79
2023/04/17 06:23:56;;;;;;;2.38;1.70;;;;;;;;;;5066895;28;20385;-80
2023/04/17 06:26:22;;;;;;;2.70;1.92;;;;;;;;;;5070019;28;20028;-80
2023/04/17 06:28:47;;;;;;;2.88;2.13;;;;;;;;;;5072774;28;20028;-81
2023/04/17 06:31:12;;;;;;;4.93;2.42;;;;;;;;;;5079256;28;20028;-80
2023/04/17 06:33:38;;;;;;;2.22;1.75;;;;;;;;;;5080668;28;20024;-79
2023/04/17 06:36:03;;;;;;;3.92;1.85;;;;;;;;;;5049971;28;20028;-81
2023/04/17 06:38:29;;;;;;;8.90;3.22;;;;;;;;;;5070656;28;20060;-81
2023/04/17 06:40:54;;;;;;;3.67;2.05;;;;;;;;;;5053890;28;20036;-82
2023/04/17 06:43:20;;;;;;;7.00;3.10;;;;;;;;;;5076734;28;20061;-82
2023/04/17 06:45:46;;;;;;;3.28;2.17;;;;;;;;;;5076280;28;20028;-81
2023/04/17 06:48:11;;;;;;;3.40;2.15;;;;;;;;;;5080976;28;20115;-81
2023/04/17 06:50:37;;;;;;;6.20;2.70;;;;;;;;;;5067112;28;20111;-81
2023/04/17 06:53:02;;;;;;;6.93;3.55;;;;;;;;;;5055289;28;20028;-81
2023/04/17 06:55:28;;;;;;;5.63;2.88;;;;;;;;;;5072265;28;20082;-80
2023/04/17 06:57:53;;;;;;;3.53;2.28;;;;;;;;;;5074337;28;20384;-81
2023/04/17 07:00:19;;;;;;;7.13;2.65;;;;;;;;;;5075250;28;20048;-81
2023/04/17 07:02:45;;;;;;;4.05;2.90;;;;;;;;;;5076427;28;20530;-80
2023/04/17 07:05:11;;;;;;;8.00;3.33;;;;;;;;;;5058440;28;20029;-80
2023/04/17 07:07:37;;;;;;;5.22;2.53;;;;;;;;;;5078485;28;20024;-81
2023/04/17 07:10:03;;;;;;;10.02;3.15;;;;;;;;;;5080646;28;20490;-81
2023/04/17 07:12:28;;;;;;;4.45;2.60;;;;;;;;;;5075776;28;20056;-80
2023/04/17 07:14:54;;;;;;;4.60;2.60;;;;;;;;;;5079201;28;20028;-80
2023/04/17 07:17:19;;;;;;;2.30;2.08;;;;;;;;;;5078684;28;20020;-81
2023/04/17 07:19:45;;;;;;;2.95;2.00;;;;;;;;;;5069521;28;20036;-82
2023/04/17 07:22:10;;;;;;;4.45;2.92;;;;;;;;;;5063221;28;20480;-81
2023/04/17 07:24:36;;;;;;;3.83;1.90;;;;;;;;;;5083041;28;20082;-81
2023/04/17 07:27:02;;;;;;;4.68;2.65;;;;;;;;;;5074786;28;20494;-81
2023/04/17 07:29:28;;;;;;;2.50;2.05;;;;;;;;;;5058386;28;20507;-80
2023/04/17 07:31:53;;;;;;;6.72;2.92;;;;;;;;;;5082370;28;20093;-79
2023/04/17 07:34:19;;;;;;;8.43;2.97;;;;;;;;;;5078433;28;20090;-79
2023/04/17 07:36:46;;;;;;;61.95;31.35;;;;;;;;;;5064807;28;20101;-81
2023/04/17 07:39:11;;;;;;;48.13;17.45;;;;;;;;;;5081615;28;20024;-81
2023/04/17 07:41:37;;;;;;;6.57;4.32;;;;;;;;;;5085338;28;20031;-81
2023/04/17 07:44:04;;;;;;;11.35;5.72;;;;;;;;;;5065055;28;20030;-82
2023/04/17 07:46:30;;;;;;;4.00;1.98;;;;;;;;;;5083018;28;20058;-83
2023/04/17 07:48:56;;;;;;;41.88;17.75;;;;;;;;;;5084305;28;20050;-82
2023/04/17 07:51:21;;;;;;;15.60;7.05;;;;;;;;;;5074204;28;20028;-82
2023/04/17 07:53:47;;;;;;;7.22;3.20;;;;;;;;;;5081109;28;20445;-81
2023/04/17 07:56:12;;;;;;;18.25;7.50;;;;;;;;;;5076285;28;20476;-79
2023/04/17 07:58:38;;;;;;;25.30;13.05;;;;;;;;;;5076840;28;20389;-80
2023/04/17 08:01:06;;;;;;;5.40;2.97;;;;;;;;;;5078765;28;20029;-83
2023/04/17 08:03:32;;;;;;;3.42;2.28;;;;;;;;;;5076430;28;20038;-82
2023/04/17 08:05:57;;;;;;;3.10;2.22;;;;;;;;;;5079779;28;20048;-81
2023/04/17 08:08:23;;;;;;;5.90;2.53;;;;;;;;;;5076992;28;20043;-82
2023/04/17 08:10:49;;;;;;;2.95;2.17;;;;;;;;;;5080556;28;20024;-81
2023/04/17 08:13:15;;;;;;;5.90;2.45;;;;;;;;;;5077612;28;20040;-83
2023/04/17 08:15:40;;;;;;;5.18;2.97;;;;;;;;;;5077389;28;20032;-82
2023/04/17 08:18:08;;;;;;;6.25;2.72;;;;;;;;;;5082309;28;20035;-82
2023/04/17 08:20:34;;;;;;;5.20;2.47;;;;;;;;;;5063667;28;20378;-82
2023/04/17 08:23:00;;;;;;;4.10;3.05;;;;;;;;;;5067974;28;20377;-81
2023/04/17 08:25:25;;;;;;;3.08;2.17;;;;;;;;;;5089182;28;20020;-83
2023/04/17 08:27:51;;;;;;;4.28;2.33;;;;;;;;;;5087127;28;20028;-83
2023/04/17 08:30:16;;;;;;;9.38;2.85;;;;;;;;;;5084008;28;20476;-83
2023/04/17 08:32:45;;;;;;;5.32;3.30;;;;;;;;;;5060965;28;20043;-82
2023/04/17 08:35:12;;;;;;;4.47;2.47;;;;;;;;;;5077963;28;20048;-82
2023/04/17 08:37:38;;;;;;;8.18;3.80;;;;;;;;;;5078290;28;20056;-83
2023/04/17 08:40:08;;;;;;;4.30;2.45;;;;;;;;;;5061086;28;20451;-79
2023/04/17 08:42:46;;;;;;;6.18;3.45;;;;;;;;;;5059962;28;20108;-81
2023/04/17 08:45:12;;;;;;;4.90;3.08;;;;;;;;;;5079811;28;20422;-80
2023/04/17 08:47:39;;;;;;;4.03;2.65;;;;;;;;;;5076715;28;20091;-79
2023/04/17 08:50:07;;;;;;;5.72;3.17;;;;;;;;;;5063073;28;20024;-79
2023/04/17 08:52:40;;;;;;;6.53;3.03;;;;;;;;;;5071672;28;20042;-79
2023/04/17 08:55:06;;;;;;;6.05;3.25;;;;;;;;;;5075724;28;20020;-80
2023/04/17 08:57:31;;;;;;;4.55;2.75;;;;;;;;;;5055410;28;20086;-80
2023/04/17 08:59:57;;;;;;;4.30;2.75;;;;;;;;;;5066697;28;20024;-81
2023/04/17 09:02:22;;;;;;;7.55;3.38;;;;;;;;;;5079008;28;20032;-83
2023/04/17 09:04:48;;;;;;;5.50;2.35;;;;;;;;;;5059124;28;20533;-83
2023/04/17 09:07:14;;;;;;;4.47;2.67;;;;;;;;;;5056100;28;20059;-80
2023/04/17 09:09:46;;;;;;;5.18;3.13;;;;;;;;;;5079978;28;20043;-81
2023/04/17 09:12:12;;;;;;;3.28;2.60;;;;;;;;;;5081559;28;20446;-82
2023/04/17 09:14:38;;;;;;;3.92;2.35;;;;;;;;;;5085185;28;20080;-82
2023/04/17 09:17:03;;;;;;;5.07;2.70;;;;;;;;;;5083166;28;20028;-81
2023/04/17 09:19:30;;;;;;;3.15;2.05;;;;;;;;;;5082261;28;20031;-82
2023/04/17 09:21:55;;;;;;;9.55;2.47;;;;;;;;;;5067233;28;20028;-81
2023/04/17 09:24:35;;;;;;;2.15;1.65;;;;;;;;;;5082231;28;20031;-82
2023/04/17 09:27:23;;;;;;;4.13;2.08;;;;;;;;;;5076052;28;20055;-80
2023/04/17 09:30:03;;;;;;;3.47;2.15;;;;;;;;;;5081085;28;20036;-82
2023/04/17 09:32:30;;;;;;;3.25;1.73;;;;;;;;;;5076692;28;20422;-82
2023/04/17 09:34:58;;;;;;;2.97;1.60;;;;;;;;;;5080836;28;20112;-82
2023/04/17 09:37:24;;;;;;;3.03;1.58;;;;;;;;;;5060442;28;20468;-83
2023/04/17 09:39:58;;;;;;;3.28;1.80;;;;;;;;;;5075463;28;20055;-82
2023/04/17 09:42:25;;;;;;;3.80;2.10;;;;;;;;;;5079078;28;20379;-83
2023/04/17 09:44:50;;;;;;;2.83;1.98;;;;;;;;;;5080311;28;20465;-82
2023/04/17 09:47:18;;;;;;;2.53;1.60;;;;;;;;;;5081350;28;20053;-82
2023/04/17 09:49:51;;;;;;;1.95;1.52;;;;;;;;;;5082579;28;20027;-82
2023/04/17 09:52:25;;;;;;;2.42;1.65;;;;;;;;;;5062809;28;20457;-82
2023/04/17 09:54:52;;;;;;;4.88;2.35;;;;;;;;;;5057934;28;20025;-83
2023/04/17 09:57:18;;;;;;;2.03;1.48;;;;;;;;;;5064091;28;20051;-82
2023/04/17 09:59:48;;;;;;;2.75;1.88;;;;;;;;;;5082145;28;20028;-82
2023/04/17 10:02:15;;;;;;;;;;;;;;;;;;5057741;28;20036;-82
2023/04/17 10:04:42;;;;;;;4.38;2.13;;;;;;;;;;5082134;28;20376;-81
2023/04/17 10:07:08;;;;;;;4.15;2.20;;;;;;;;;;5082139;28;20028;-82
2023/04/17 10:09:33;;;;;;;5.32;2.38;;;;;;;;;;5079271;28;20032;-81
2023/04/17 10:12:01;;;;;;;2.63;1.80;;;;;;;;;;5081900;28;20434;-80
2023/04/17 10:14:37;;;;;;;3.72;2.55;;;;;;;;;;5061822;28;20747;-82
2023/04/17 10:17:27;;;;;;;2.25;1.55;;;;;;;;;;5059267;28;20036;-84
2023/04/17 10:19:53;;;;;;;4.82;2.05;;;;;;;;;;5058310;28;20036;-82
2023/04/17 10:22:18;;;;;;;3.67;2.47;;;;;;;;;;5080496;28;20028;-81
2023/04/17 10:24:51;;;;;;;4.47;1.95;;;;;;;;;;5062420;28;20020;-81
2023/04/17 10:27:26;;;;;;;3.47;2.15;;;;;;;;;;5058647;28;20103;-82
2023/04/17 10:29:56;;;;;;;5.28;2.92;;;;;;;;;;5066792;28;20067;-82
2023/04/17 10:32:24;;;;;;;3.67;1.95;;;;;;;;;;5081588;28;20141;-82
2023/04/17 10:35:19;;;;;;;8.40;1.90;;;;;;;;;;5076177;28;20116;-80
2023/04/17 10:37:50;;;;;;;2.78;2.15;;;;;;;;;;5073253;28;20538;-80
2023/04/17 10:40:20;;;;;;;3.78;2.35;;;;;;;;;;5086021;28;20032;-80
2023/04/17 10:43:10;;;;;;;3.28;1.92;;;;;;;;;;5079342;28;20499;-82
2023/04/17 10:45:54;;;;;;;3.75;1.63;;;;;;;;;;5065220;28;20024;-81
2023/04/17 10:48:21;;;;;;;6.13;2.35;;;;;;;;;;5082723;28;20094;-83
2023/04/17 10:50:46;;;;;;;3.60;2.67;;;;;;;;;;5069954;28;20035;-82
2023/04/17 10:53:42;;;;;;;3.53;2.00;;;;;;;;;;5075853;28;20032;-83
2023/04/17 10:56:09;;;;;;;3.10;1.83;;;;;;;;;;5061581;28;20088;-80
2023/04/17 10:58:37;;;;;;;3.25;2.10;;;;;;;;;;5083347;28;20375;-82
2023/04/17 11:01:08;;;;;;;3.97;2.25;;;;;;;;;;5083210;28;20350;-81
2023/04/17 11:03:36;;;;;;;2.42;1.52;;;;;;;;;;5052931;28;20115;-81
2023/04/17 11:06:01;;;;;;;4.68;1.92;;;;;;;;;;5055173;28;20181;-79
2023/04/17 11:08:27;;;;;;;3.70;2.15;;;;;;;;;;5067285;28;20112;-83
2023/04/17 11:10:55;;;;;;;3.72;1.65;;;;;;;;;;5055736;28;20028;-83
2023/04/17 11:13:21;;;;;;;2.28;1.65;;;;;;;;;;5069053;28;20049;-83
2023/04/17 11:15:46;;;;;;;3.25;1.88;;;;;;;;;;5058511;28;20017;-84
2023/04/17 11:18:12;;;;;;;3.10;1.80;;;;;;;;;;5055607;28;20519;-80
2023/04/17 11:20:37;;;;;;;3.88;2.08;;;;;;;;;;5078653;28;20021;-82
2023/04/17 11:23:06;;;;;;;2.83;1.70;;;;;;;;;;5074899;28;20358;-82
2023/04/17 11:25:32;;;;;;;2.97;2.15;;;;;;;;;;5072470;28;20031;-84
2023/04/17 11:28:04;;;;;;;3.13;2.22;;;;;;;;;;5081758;28;20426;-81
2023/04/17 11:30:30;;;;;;;1.73;1.27;;;;;;;;;;5078886;28;20028;-81
2023/04/17 11:33:00;;;;;;;4.65;2.67;;;;;;;;;;5087033;28;20086;-81
2023/04/17 11:35:34;;;;;;;6.13;2.42;;;;;;;;;;5092067;28;20058;-81
2023/04/17 11:38:21;;;;;;;3.45;2.08;;;;;;;;;;5087939;28;20036;-82
2023/04/17 11:40:51;;;;;;;3.65;2.58;;;;;;;;;;5060007;28;20041;-82
2023/04/17 11:43:19;;;;;;;4.53;2.33;;;;;;;;;;5056964;28;20392;-81
2023/04/17 11:45:47;;;;;;;5.35;3.47;;;;;;;;;;5066357;28;20028;-82
2023/04/17 11:48:14;;;;;;;3.40;2.22;;;;;;;;;;5084214;28;20028;-81
2023/04/17 11:50:43;;;;;;;2.47;2.10;;;;;;;;;;5081800;28;20064;-81
2023/04/17 11:53:13;;;;;;;4.13;2.55;;;;;;;;;;5062950;28;20020;-81
2023/04/17 11:55:39;;;;;;;3.67;2.17;;;;;;;;;;5079200;28;20025;-82
2023/04/17 11:58:06;;;;;;;3.40;2.08;;;;;;;;;;5056702;28;20072;-82
2023/04/17 12:00:32;;;;;;;3.08;2.38;;;;;;;;;;5077453;28;20479;-82
2023/04/17 12:02:59;;;;;;;3.90;1.88;;;;;;;;;;5075326;28;20028;-81
2023/04/17 12:05:26;;;;;;;3.65;2.33;;;;;;;;;;5083596;28;20488;-82
2023/04/17 12:08:01;;;;;;;3.15;1.83;;;;;;;;;;5063347;28;20107;-81
2023/04/17 12:10:41;;;;;;;3.55;2.45;;;;;;;;;;5088589;28;20098;-82
2023/04/17 12:13:08;;;;;;;7.50;3.10;;;;;;;;;;5083848;28;20104;-82
2023/04/17 12:15:34;;;;;;;6.95;3.40;;;;;;;;;;5076776;28;20031;-81
2023/04/17 12:18:04;;;;;;;5.00;2.17;;;;;;;;;;5084667;28;20033;-81
2023/04/17 12:20:33;;;;;;;5.60;2.95;;;;;;;;;;5061571;28;20026;-81
2023/04/17 12:22:58;;;;;;;6.30;2.90;;;;;;;;;;5091840;28;20051;-82
2023/04/17 12:25:24;;;;;;;3.97;2.75;;;;;;;;;;5059428;28;20035;-81
2023/04/17 12:27:49;;;;;;;4.22;2.35;;;;;;;;;;5058654;28;20502;-82
2023/04/17 12:30:15;;;;;;;5.88;2.72;;;;;;;;;;5056579;28;20058;-81
2023/04/17 12:32:42;;;;;;;4.57;2.92;;;;;;;;;;5075084;28;20472;-81
2023/04/17 12:35:08;;;;;;;5.22;2.47;;;;;;;;;;5078492;28;20041;-81
2023/04/17 12:37:33;;;;;;;6.47;3.20;;;;;;;;;;5078473;28;20028;-81
2023/04/17 12:39:59;;;;;;;8.50;4.10;;;;;;;;;;5076155;28;20031;-82
2023/04/17 12:42:24;;;;;;;3.42;2.10;;;;;;;;;;5082162;28;20032;-81
2023/04/17 12:44:50;;;;;;;4.57;2.20;;;;;;;;;;5081726;28;20024;-82
2023/04/17 12:47:15;;;;;;;4.47;2.78;;;;;;;;;;5079880;28;20465;-81
2023/04/17 12:49:40;;;;;;;4.75;2.80;;;;;;;;;;5079060;28;20534;-81
2023/04/17 12:52:06;;;;;;;9.40;3.30;;;;;;;;;;5089028;28;20491;-81
2023/04/17 12:54:31;;;;;;;7.38;3.67;;;;;;;;;;5080322;28;20074;-82
2023/04/17 12:56:57;;;;;;;3.92;2.50;;;;;;;;;;5080556;28;20021;-81
2023/04/17 12:59:22;;;;;;;10.77;3.00;;;;;;;;;;5084928;28;20059;-81
2023/04/17 13:01:48;;;;;;;4.28;3.10;;;;;;;;;;5061692;28;20047;-81
2023/04/17 13:04:13;;;;;;;6.20;1.88;;;;;;;;;;5063646;28;20045;-81
2023/04/17 13:06:39;;;;;;;3.83;2.53;;;;;;;;;;5088131;28;20063;-82
2023/04/17 13:09:04;;;;;;;4.20;2.33;;;;;;;;;;5082661;28;20024;-81
2023/04/17 13:11:31;;;;;;;5.22;2.55;;;;;;;;;;5077917;28;20036;-79
2023/04/17 13:13:56;;;;;;;4.50;2.97;;;;;;;;;;5035355;28;20068;-80
2023/04/17 13:16:22;;;;;;;4.25;2.42;;;;;;;;;;5032183;28;20030;-80
2023/04/17 13:18:47;;;;;;;4.20;2.55;;;;;;;;;;5034764;28;20051;-80
2023/04/17 13:21:12;;;;;;;5.55;2.90;;;;;;;;;;5032940;28;20063;-84
2023/04/17 13:23:38;;;;;;;6.03;2.63;;;;;;;;;;5041681;28;20107;-81
2023/04/17 13:26:03;;;;;;;3.92;2.65;;;;;;;;;;5043749;28;20469;-81
2023/04/17 13:28:29;;;;;;;2.83;2.20;;;;;;;;;;5039764;28;20029;-81
2023/04/17 13:30:54;;;;;;;3.42;2.35;;;;;;;;;;5036625;28;20029;-81
2023/04/17 13:33:20;;;;;;;4.00;1.95;;;;;;;;;;5036761;28;20429;-81
2023/04/17 13:35:46;;;;;;;5.00;3.65;;;;;;;;;;5041672;28;20101;-81
2023/04/17 13:38:11;;;;;;;5.32;2.92;;;;;;;;;;5034166;28;20041;-82
2023/04/17 13:40:37;;;;;;;4.55;2.92;;;;;;;;;;5032143;28;20041;-82
2023/04/17 13:43:04;;;;;;;4.10;2.35;;;;;;;;;;5041473;28;20029;-81
2023/04/17 13:45:30;;;;;;;3.30;2.10;;;;;;;;;;5037818;28;20362;-81
2023/04/17 13:47:55;;;;;;;4.70;2.10;;;;;;;;;;5047895;28;20036;-81
2023/04/17 13:50:21;;;;;;;6.18;3.15;;;;;;;;;;5042385;28;20393;-81
2023/04/17 13:52:46;;;;;;;2.45;1.95;;;;;;;;;;5048560;28;20028;-81
2023/04/17 13:55:13;;;;;;;6.68;2.97;;;;;;;;;;5031141;28;20101;-81
2023/04/17 13:57:38;;;;;;;5.38;2.50;;;;;;;;;;5031836;28;20033;-81
2023/04/17 14:00:06;;;;;;;5.55;2.90;;;;;;;;;;5035275;28;20041;-81
2023/04/17 14:02:31;;;;;;;3.88;2.55;;;;;;;;;;5031203;28;20021;-80
2023/04/17 14:04:56;;;;;;;4.78;2.05;;;;;;;;;;5033877;28;20376;-80
2023/04/17 14:07:22;;;;;;;3.67;2.13;;;;;;;;;;5031982;28;20501;-81
2023/04/17 14:09:47;;;;;;;4.32;2.50;;;;;;;;;;5044558;28;20025;-82
2023/04/17 14:12:18;;;;;;;3.97;2.28;;;;;;;;;;5039246;28;20033;-81
2023/04/17 14:14:44;;;;;;;6.70;2.83;;;;;;;;;;5077675;28;20123;-81
2023/04/17 14:17:10;;;;;;;4.60;2.97;;;;;;;;;;5078816;28;20491;-82
2023/04/17 14:19:35;;;;;;;5.38;3.65;;;;;;;;;;5079970;28;20060;-81
2023/04/17 14:22:01;;;;;;;4.28;2.00;;;;;;;;;;5077118;28;20108;-81
2023/04/17 14:24:26;;;;;;;5.43;2.90;;;;;;;;;;5068861;28;20025;-80
2023/04/17 14:26:52;;;;;;;4.10;2.42;;;;;;;;;;5072989;28;20030;-81
2023/04/17 14:46:15;;;;;;;12.13;4.15;;;;;;;;;;5106431;27;20378;-81
2023/04/17 14:48:41;;;;;;;3.45;2.05;;;;;;;;;;5089313;28;20101;-81
2023/04/17 14:51:12;;;;;;;3.47;1.67;;;;;;;;;;5091889;28;20047;-81
2023/04/17 14:53:38;;;;;;;4.75;2.08;;;;;;;;;;5090101;28;20527;-81
2023/04/17 14:56:03;;;;;;;4.28;2.83;;;;;;;;;;5093651;28;20103;-81
2023/04/17 14:58:32;;;;;;;5.75;2.63;;;;;;;;;;5092249;28;20090;-81